Time;durP1;ratioP1;P1;durP2;ratioP2;P2;SDS_P1;SDS_P2;PMS_P1;PMS_P2;Temp;Humidity;BMP_temperature;BMP_pressure;BME280_temperature;BME280_humidity;BME280_pressure;Samples;Min_cycle;Max_cycle;Signal;HPM_P1;HPM_P2
2022/08/26 00:01:25;;;;;;;7.07;5.00;;;23.20;99.90;;;;;;5071675;28;20204;-57
2022/08/26 00:03:53;;;;;;;7.00;5.33;;;23.20;99.90;;;;;;5071498;28;20247;-53
2022/08/26 00:06:20;;;;;;;8.37;4.83;;;23.20;99.90;;;;;;5071605;28;20330;-53
2022/08/26 00:08:47;;;;;;;8.00;5.07;;;23.20;99.90;;;;;;5071803;28;20205;-52
2022/08/26 00:11:14;;;;;;;6.83;5.63;;;23.20;99.90;;;;;;5071629;28;20201;-54
2022/08/26 00:13:41;;;;;;;6.93;5.20;;;23.20;99.90;;;;;;5071503;28;20599;-56
2022/08/26 00:16:10;;;;;;;6.07;5.40;;;23.20;99.90;;;;;;5071315;28;20618;-56
2022/08/26 00:18:38;;;;;;;6.87;5.10;;;23.20;99.90;;;;;;5071427;28;20213;-55
2022/08/26 00:21:08;;;;;;;8.17;4.77;;;23.20;99.90;;;;;;5071350;28;20209;-55
2022/08/26 00:23:35;;;;;;;6.83;5.60;;;23.10;99.90;;;;;;5071445;28;20229;-54
2022/08/26 00:26:04;;;;;;;8.37;5.50;;;23.10;99.90;;;;;;5071320;28;20212;-55
2022/08/26 00:28:31;;;;;;;9.50;5.57;;;23.00;99.90;;;;;;5071347;28;20702;-53
2022/08/26 00:30:57;;;;;;;8.77;5.27;;;23.00;99.90;;;;;;5071473;28;20254;-51
2022/08/26 00:33:24;;;;;;;7.03;5.10;;;23.00;99.90;;;;;;5071485;28;20566;-57
2022/08/26 00:35:51;;;;;;;8.97;5.20;;;22.90;99.90;;;;;;5071327;28;20212;-56
2022/08/26 00:38:20;;;;;;;6.43;5.00;;;22.90;99.90;;;;;;5071587;28;20209;-52
2022/08/26 00:40:49;;;;;;;6.27;5.10;;;22.80;99.90;;;;;;5071410;28;20211;-54
2022/08/26 00:43:17;;;;;;;7.67;5.80;;;22.80;99.90;;;;;;5072158;28;20232;-55
2022/08/26 00:45:50;;;;;;;8.73;5.17;;;22.80;99.90;;;;;;5075141;28;20200;-53
2022/08/26 00:48:21;;;;;;;8.57;5.50;;;22.70;99.90;;;;;;5075152;28;20235;-57
2022/08/26 00:50:54;;;;;;;7.47;5.63;;;22.70;99.90;;;;;;5076303;28;20266;-58
2022/08/26 00:53:25;;;;;;;8.50;5.67;;;22.70;99.90;;;;;;5074723;28;20311;-58
2022/08/26 00:55:57;;;;;;;10.07;5.20;;;22.60;99.90;;;;;;5074876;28;20803;-57
2022/08/26 00:58:26;;;;;;;7.83;5.40;;;22.50;99.90;;;;;;5074828;28;20205;-57
2022/08/26 01:00:53;;;;;;;8.33;5.87;;;22.40;99.90;;;;;;5074956;28;20204;-58
2022/08/26 01:03:24;;;;;;;7.73;5.60;;;22.40;99.90;;;;;;5074840;28;20227;-57
2022/08/26 01:05:54;;;;;;;7.10;5.60;;;22.30;99.90;;;;;;5074877;28;20278;-55
2022/08/26 01:08:22;;;;;;;7.03;5.20;;;22.20;99.90;;;;;;5074577;28;20254;-57
2022/08/26 01:10:48;;;;;;;9.00;5.40;;;22.20;99.90;;;;;;5074577;28;20209;-53
2022/08/26 01:13:16;;;;;;;6.53;5.50;;;22.10;99.90;;;;;;5074550;28;20225;-56
2022/08/26 01:15:45;;;;;;;9.07;5.70;;;22.10;99.90;;;;;;5074415;28;20250;-54
2022/08/26 01:18:13;;;;;;;7.33;5.90;;;22.10;99.90;;;;;;5074257;28;20205;-49
2022/08/26 01:20:50;;;;;;;8.93;5.77;;;22.00;99.90;;;;;;5074330;28;20217;-53
2022/08/26 01:23:19;;;;;;;7.77;6.10;;;21.90;99.90;;;;;;5074030;28;20232;-51
2022/08/26 01:25:50;;;;;;;9.27;6.10;;;21.90;99.90;;;;;;5074359;28;20546;-56
2022/08/26 01:28:22;;;;;;;8.10;5.90;;;21.80;99.90;;;;;;5074344;28;20213;-57
2022/08/26 01:30:51;;;;;;;8.37;6.53;;;21.70;99.90;;;;;;5074219;28;20216;-56
2022/08/26 01:33:23;;;;;;;8.67;6.30;;;21.70;99.90;;;;;;5073953;28;20228;-57
2022/08/26 01:35:50;;;;;;;11.53;7.10;;;21.60;99.90;;;;;;5074133;28;20212;-55
2022/08/26 01:38:18;;;;;;;10.40;6.77;;;21.60;99.90;;;;;;5073966;28;20204;-54
2022/08/26 01:40:46;;;;;;;11.13;7.20;;;21.50;99.90;;;;;;5074173;28;20209;-53
2022/08/26 01:43:17;;;;;;;9.27;6.60;;;21.50;99.90;;;;;;5073964;28;20278;-55
2022/08/26 01:45:45;;;;;;;8.70;6.40;;;21.40;99.90;;;;;;5073958;28;20205;-53
2022/08/26 01:48:16;;;;;;;11.30;6.50;;;21.30;99.90;;;;;;5073594;28;20209;-50
2022/08/26 01:50:44;;;;;;;10.03;6.40;;;21.30;99.90;;;;;;5073988;28;20274;-52
2022/08/26 01:53:14;;;;;;;8.47;6.67;;;21.20;99.90;;;;;;5073638;28;20251;-55
2022/08/26 01:55:46;;;;;;;11.27;6.83;;;21.20;99.90;;;;;;5072964;28;20255;-54
2022/08/26 01:58:19;;;;;;;9.80;7.20;;;21.10;99.90;;;;;;5073506;28;20235;-55
2022/08/26 02:00:46;;;;;;;10.00;6.80;;;21.10;99.90;;;;;;5073496;28;20201;-51
2022/08/26 02:03:20;;;;;;;9.90;6.37;;;21.00;99.90;;;;;;5073736;28;20282;-55
2022/08/26 02:05:52;;;;;;;10.53;7.30;;;21.00;99.90;;;;;;5073482;28;20224;-55
2022/08/26 02:08:21;;;;;;;10.50;7.40;;;20.90;99.90;;;;;;5073598;28;20227;-57
2022/08/26 02:10:49;;;;;;;9.80;7.30;;;20.80;99.90;;;;;;5073366;28;20580;-56
2022/08/26 02:13:16;;;;;;;9.77;7.27;;;20.80;99.90;;;;;;5073193;28;20232;-56
2022/08/26 02:15:44;;;;;;;11.17;7.50;;;20.70;99.90;;;;;;5073144;28;20201;-55
2022/08/26 02:18:11;;;;;;;9.60;7.97;;;20.60;99.90;;;;;;5073039;28;20676;-54
2022/08/26 02:20:39;;;;;;;12.07;7.00;;;20.50;99.90;;;;;;5073090;28;20639;-54
2022/08/26 02:23:06;;;;;;;10.50;7.87;;;20.50;99.90;;;;;;5073110;28;20229;-57
2022/08/26 02:25:40;;;;;;;9.43;7.60;;;20.50;99.90;;;;;;5072979;28;20229;-55
2022/08/26 02:28:09;;;;;;;13.03;8.10;;;20.40;99.90;;;;;;5073113;28;20247;-53
2022/08/26 02:30:38;;;;;;;12.30;8.53;;;20.40;99.90;;;;;;5073083;28;20209;-56
2022/08/26 02:33:05;;;;;;;14.20;7.77;;;20.40;99.90;;;;;;5072990;28;20224;-56
2022/08/26 02:35:34;;;;;;;11.03;8.40;;;20.40;99.90;;;;;;5072847;28;20624;-57
2022/08/26 02:38:02;;;;;;;15.23;9.20;;;20.20;99.90;;;;;;5072696;28;20213;-57
2022/08/26 02:40:34;;;;;;;11.97;9.80;;;20.20;99.90;;;;;;5073016;28;20299;-55
2022/08/26 02:43:00;;;;;;;15.30;9.90;;;20.10;99.90;;;;;;5072876;28;20221;-57
2022/08/26 02:45:28;;;;;;;14.53;10.63;;;20.10;99.90;;;;;;5072796;28;20266;-56
2022/08/26 02:47:56;;;;;;;16.07;11.47;;;20.10;1.00;;;;;;5072559;28;20244;-59
2022/08/26 02:50:24;;;;;;;16.50;11.83;;;20.00;1.00;;;;;;5072690;28;20239;-59
2022/08/26 02:52:51;;;;;;;18.23;12.77;;;19.90;1.00;;;;;;5072327;28;20229;-55
2022/08/26 02:55:18;;;;;;;20.57;15.73;;;19.80;99.90;;;;;;5072582;28;20732;-54
2022/08/26 02:57:45;;;;;;;22.23;15.87;;;19.70;99.90;;;;;;5072337;28;20205;-52
2022/08/26 03:00:14;;;;;;;24.13;16.83;;;19.60;1.00;;;;;;5072476;28;20217;-52
2022/08/26 03:02:42;;;;;;;26.17;17.70;;;19.60;99.90;;;;;;5072344;28;20596;-56
2022/08/26 03:05:10;;;;;;;25.63;19.33;;;19.60;99.90;;;;;;5072333;28;20229;-57
2022/08/26 03:07:37;;;;;;;27.03;20.63;;;19.60;99.90;;;;;;5071974;28;20209;-51
2022/08/26 03:10:05;;;;;;;29.20;22.13;;;19.50;99.90;;;;;;5072641;28;20209;-54
2022/08/26 03:12:32;;;;;;;30.47;22.20;;;19.40;99.90;;;;;;5072210;28;20205;-57
2022/08/26 03:14:58;;;;;;;34.80;22.87;;;19.40;99.90;;;;;;5072263;28;20266;-54
2022/08/26 03:17:25;;;;;;;33.90;25.93;;;19.40;99.90;;;;;;5071981;28;20263;-53
2022/08/26 03:19:53;;;;;;;40.10;32.70;;;19.30;99.90;;;;;;5071925;28;20728;-56
2022/08/26 03:22:19;;;;;;;43.80;33.13;;;19.30;1.00;;;;;;5072189;28;20205;-56
2022/08/26 03:24:46;;;;;;;47.63;34.70;;;19.20;1.00;;;;;;5072266;28;20224;-54
2022/08/26 03:27:13;;;;;;;50.27;37.43;;;19.10;1.00;;;;;;5071998;28;20629;-55
2022/08/26 03:32:23;;;;;;;57.83;40.33;;;19.00;1.00;;;;;;5071889;28;20250;-52
2022/08/26 03:34:50;;;;;;;57.27;42.23;;;18.90;1.00;;;;;;5072020;28;20276;-55
2022/08/26 03:37:18;;;;;;;61.10;42.37;;;18.90;1.00;;;;;;5071871;28;20627;-56
2022/08/26 03:39:45;;;;;;;62.27;44.63;;;18.90;1.00;;;;;;5071937;28;20255;-57
2022/08/26 03:42:11;;;;;;;63.33;46.23;;;18.90;1.00;;;;;;5071979;28;20209;-54
2022/08/26 03:44:38;;;;;;;64.53;47.77;;;18.90;4.50;;;;;;5071681;28;20221;-57
2022/08/26 03:47:06;;;;;;;63.27;44.10;;;18.90;25.50;;;;;;5071870;28;20625;-55
2022/08/26 03:49:34;;;;;;;66.00;47.87;;;18.90;29.30;;;;;;5071941;28;20625;-56
2022/08/26 03:52:01;;;;;;;69.87;49.47;;;18.90;31.20;;;;;;5071759;28;20215;-55
2022/08/26 03:54:29;;;;;;;74.20;53.50;;;18.90;39.30;;;;;;5071793;28;20220;-56
2022/08/26 03:56:56;;;;;;;78.17;55.53;;;18.80;73.60;;;;;;5071660;28;20201;-57
2022/08/26 03:59:22;;;;;;;82.83;58.60;;;18.80;95.30;;;;;;5071708;28;20201;-52
2022/08/26 04:01:49;;;;;;;84.73;60.00;;;18.70;99.90;;;;;;5071913;28;20258;-55
2022/08/26 04:04:15;;;;;;;91.27;60.87;;;18.70;99.90;;;;;;5071613;28;20652;-57
2022/08/26 04:06:43;;;;;;;89.50;62.27;;;18.60;99.90;;;;;;5071356;28;20693;-51
2022/08/26 04:09:12;;;;;;;87.77;60.17;;;18.60;99.90;;;;;;5071574;28;20668;-54
2022/08/26 04:11:41;;;;;;;101.63;66.63;;;18.60;99.90;;;;;;5071640;28;20243;-55
2022/08/26 04:14:12;;;;;;;102.43;68.30;;;18.60;99.90;;;;;;5071349;28;20644;-55
2022/08/26 04:16:38;;;;;;;99.30;67.13;;;18.60;99.90;;;;;;5071606;28;20559;-54
2022/08/26 04:19:05;;;;;;;106.27;69.83;;;18.60;99.90;;;;;;5073827;28;20683;-53
2022/08/26 04:21:32;;;;;;;102.53;69.17;;;18.60;99.90;;;;;;5075528;28;20204;-55
2022/08/26 04:23:58;;;;;;;111.30;72.93;;;18.60;99.90;;;;;;5075187;28;20722;-55
2022/08/26 04:26:26;;;;;;;114.53;71.20;;;18.60;99.90;;;;;;5075045;28;20225;-54
2022/08/26 04:28:55;;;;;;;120.70;76.27;;;18.60;99.90;;;;;;5075204;28;20213;-54
2022/08/26 04:31:22;;;;;;;116.60;76.27;;;18.70;99.90;;;;;;5075455;28;20310;-56
2022/08/26 04:33:49;;;;;;;133.57;81.50;;;18.70;99.90;;;;;;5075358;28;20596;-57
2022/08/26 04:36:16;;;;;;;135.83;82.73;;;18.70;99.90;;;;;;5074877;28;20567;-53
2022/08/26 04:38:43;;;;;;;137.53;84.07;;;18.70;99.90;;;;;;5074636;28;20204;-54
2022/08/26 04:41:11;;;;;;;137.23;81.23;;;18.80;99.90;;;;;;5074663;28;20216;-58
2022/08/26 04:43:37;;;;;;;148.63;82.67;;;18.80;99.90;;;;;;5075120;28;20221;-55
2022/08/26 04:46:06;;;;;;;145.63;83.23;;;18.90;99.90;;;;;;5074630;28;20232;-56
2022/08/26 04:48:34;;;;;;;155.83;86.03;;;19.00;99.90;;;;;;5074948;28;20209;-54
2022/08/26 04:51:01;;;;;;;153.03;82.70;;;19.00;99.90;;;;;;5074829;28;20274;-57
2022/08/26 04:53:27;;;;;;;140.20;81.30;;;19.00;99.90;;;;;;5074784;28;20220;-56
2022/08/26 04:55:54;;;;;;;157.73;82.87;;;19.00;99.90;;;;;;5074459;28;20208;-58
2022/08/26 04:58:23;;;;;;;160.87;82.13;;;19.00;99.90;;;;;;5074859;28;20621;-55
2022/08/26 05:00:51;;;;;;;151.53;82.67;;;19.00;99.90;;;;;;5074745;28;20209;-55
2022/08/26 05:03:20;;;;;;;162.23;87.87;;;19.00;99.90;;;;;;5074768;28;20224;-56
2022/08/26 05:05:48;;;;;;;160.50;84.73;;;19.10;99.90;;;;;;5074260;28;20217;-54
2022/08/26 05:08:16;;;;;;;141.00;77.53;;;19.10;99.90;;;;;;5074334;28;20209;-54
2022/08/26 05:10:46;;;;;;;141.60;76.77;;;19.20;99.90;;;;;;5074682;28;20209;-54
2022/08/26 05:13:15;;;;;;;144.80;76.73;;;19.20;99.90;;;;;;5074478;28;20658;-56
2022/08/26 05:15:43;;;;;;;131.93;74.50;;;19.20;99.90;;;;;;5074607;28;20263;-51
2022/08/26 05:18:10;;;;;;;140.93;75.67;;;19.20;99.90;;;;;;5074215;28;20209;-54
2022/08/26 05:20:41;;;;;;;130.40;71.57;;;19.20;99.90;;;;;;5074057;28;20281;-56
2022/08/26 05:23:08;;;;;;;132.47;74.20;;;19.30;99.90;;;;;;5074409;28;20229;-50
2022/08/26 05:25:37;;;;;;;127.47;71.47;;;19.30;99.90;;;;;;5074552;28;20673;-56
2022/08/26 05:28:04;;;;;;;128.47;70.90;;;19.40;99.90;;;;;;5074115;28;20217;-51
2022/08/26 05:30:31;;;;;;;125.07;68.83;;;19.40;99.90;;;;;;5073168;28;20294;-53
2022/08/26 05:32:58;;;;;;;122.10;69.53;;;19.40;99.90;;;;;;5073864;28;20603;-57
2022/08/26 05:35:30;;;;;;;112.83;65.77;;;19.50;99.90;;;;;;5073955;28;20205;-52
2022/08/26 05:37:59;;;;;;;112.10;63.87;;;19.50;99.90;;;;;;5073836;28;20213;-54
2022/08/26 05:40:26;;;;;;;118.90;65.83;;;19.60;99.90;;;;;;5074124;28;20229;-52
2022/08/26 05:42:53;;;;;;;103.43;60.73;;;19.60;99.90;;;;;;5073628;28;20225;-54
2022/08/26 05:45:22;;;;;;;103.00;62.70;;;19.60;99.90;;;;;;5073830;28;20768;-54
2022/08/26 05:47:49;;;;;;;102.40;59.57;;;19.60;99.90;;;;;;5073324;28;20295;-54
2022/08/26 05:50:20;;;;;;;94.37;58.17;;;19.70;99.90;;;;;;5073813;28;20209;-54
2022/08/26 05:52:47;;;;;;;93.10;56.53;;;19.80;99.90;;;;;;5073748;28;20303;-53
2022/08/26 05:55:15;;;;;;;90.10;55.67;;;19.80;99.90;;;;;;5073780;28;20204;-52
2022/08/26 05:57:42;;;;;;;95.30;56.60;;;19.80;99.90;;;;;;5073361;28;20684;-54
2022/08/26 06:00:11;;;;;;;78.87;52.23;;;19.90;99.90;;;;;;5073539;28;20292;-51
2022/08/26 06:02:38;;;;;;;82.17;51.50;;;19.90;99.90;;;;;;5073383;28;20672;-56
2022/08/26 06:05:05;;;;;;;81.87;51.97;;;20.00;99.90;;;;;;5073801;28;20224;-56
2022/08/26 06:10:13;;;;;;;81.60;52.63;;;20.10;99.90;;;;;;5073254;28;20201;-56
2022/08/26 06:12:41;;;;;;;77.87;49.03;;;20.00;99.90;;;;;;5074168;28;20221;-57
2022/08/26 06:15:09;;;;;;;75.87;50.43;;;20.10;99.90;;;;;;5073780;28;20197;-57
2022/08/26 06:17:35;;;;;;;72.43;47.23;;;20.10;99.90;;;;;;5073848;28;20209;-56
2022/08/26 06:20:02;;;;;;;69.57;46.03;;;20.10;99.90;;;;;;5073643;28;20239;-59
2022/08/26 06:28:13;;;;;;;66.13;43.07;;;20.20;99.90;;;;;;5030683;28;20206;-56
2022/08/26 06:30:41;;;;;;;70.10;46.57;;;20.20;99.90;;;;;;5030752;28;20206;-56
2022/08/26 06:33:08;;;;;;;70.13;46.37;;;20.10;99.90;;;;;;5049616;28;20224;-54
2022/08/26 06:35:38;;;;;;;67.50;43.50;;;20.10;99.90;;;;;;5072831;28;20254;-57
2022/08/26 06:38:06;;;;;;;69.27;45.43;;;20.20;99.90;;;;;;5072617;28;20258;-53
2022/08/26 06:40:35;;;;;;;67.20;43.67;;;20.20;99.90;;;;;;5072546;28;20240;-56
2022/08/26 06:43:01;;;;;;;72.27;45.27;;;20.30;97.70;;;;;;5072840;28;20232;-57
2022/08/26 06:45:29;;;;;;;68.80;45.40;;;20.40;76.60;;;;;;5072426;28;20229;-54
2022/08/26 06:47:56;;;;;;;67.97;43.13;;;20.30;76.40;;;;;;5072371;28;20204;-60
2022/08/26 06:50:23;;;;;;;63.57;42.83;;;20.40;67.80;;;;;;5072699;28;20216;-59
2022/08/26 06:52:51;;;;;;;64.03;43.90;;;20.50;49.20;;;;;;5072556;28;20733;-60
2022/08/26 06:55:18;;;;;;;73.00;44.77;;;20.60;44.70;;;;;;5072613;28;20204;-59
2022/08/26 06:57:45;;;;;;;64.77;45.30;;;20.50;26.20;;;;;;5072134;28;20200;-58
2022/08/26 07:00:14;;;;;;;68.13;42.50;;;20.50;29.40;;;;;;5072260;28;20213;-60
2022/08/26 07:02:42;;;;;;;72.80;45.17;;;20.60;33.90;;;;;;5072307;28;20782;-58
2022/08/26 07:05:10;;;;;;;65.87;41.40;;;20.60;13.00;;;;;;5072454;28;20251;-57
2022/08/26 07:07:37;;;;;;;62.00;42.67;;;20.60;12.10;;;;;;5072151;28;20204;-58
2022/08/26 07:10:04;;;;;;;66.97;43.03;;;20.80;5.60;;;;;;5072314;28;20205;-59
2022/08/26 07:12:30;;;;;;;63.30;41.63;;;20.80;1.00;;;;;;5072072;28;20207;-57
2022/08/26 07:14:57;;;;;;;66.63;43.43;;;20.70;1.00;;;;;;5072048;28;20209;-59
2022/08/26 07:17:24;;;;;;;64.07;41.40;;;20.80;1.00;;;;;;5071504;28;20205;-58
2022/08/26 07:19:52;;;;;;;64.10;43.13;;;20.80;1.00;;;;;;5072066;28;20213;-59
2022/08/26 07:22:19;;;;;;;68.27;43.60;;;20.80;1.00;;;;;;5072177;28;20216;-60
2022/08/26 07:24:46;;;;;;;70.23;46.73;;;20.90;1.00;;;;;;5071805;28;20209;-60
2022/08/26 07:27:16;;;;;;;64.27;43.87;;;21.00;1.00;;;;;;5071612;28;20286;-59
2022/08/26 07:29:43;;;;;;;59.10;42.00;;;21.00;1.00;;;;;;5072304;28;20619;-58
2022/08/26 07:32:11;;;;;;;61.60;41.27;;;21.00;1.00;;;;;;5071792;28;20655;-60
2022/08/26 07:34:39;;;;;;;59.33;41.10;;;21.20;1.00;;;;;;5071714;28;20224;-60
2022/08/26 07:37:07;;;;;;;63.57;41.90;;;21.20;1.00;;;;;;5071746;28;20254;-59
2022/08/26 07:39:34;;;;;;;57.40;38.43;;;21.20;1.00;;;;;;5071757;28;20638;-58
2022/08/26 07:42:01;;;;;;;67.77;42.80;;;21.10;1.00;;;;;;5071725;28;20741;-59
2022/08/26 07:44:28;;;;;;;59.37;39.70;;;21.20;1.00;;;;;;5071422;28;20271;-59
2022/08/26 07:46:55;;;;;;;62.17;42.83;;;21.30;1.00;;;;;;5071627;28;20237;-59
2022/08/26 07:49:25;;;;;;;67.47;42.57;;;21.30;1.00;;;;;;5071998;28;20201;-59
2022/08/26 07:51:53;;;;;;;66.10;43.53;;;21.20;1.00;;;;;;5071774;28;20208;-57
2022/08/26 07:54:22;;;;;;;58.87;43.23;;;21.20;1.00;;;;;;5071232;28;20225;-58
2022/08/26 07:56:48;;;;;;;69.40;45.77;;;21.30;1.00;;;;;;5071636;28;20288;-60
2022/08/26 07:59:16;;;;;;;66.70;44.23;;;21.30;1.00;;;;;;5059232;28;20216;-60
2022/08/26 08:01:44;;;;;;;61.37;41.60;;;21.50;1.00;;;;;;5067502;28;20209;-59
2022/08/26 08:04:11;;;;;;;62.13;43.87;;;21.50;1.00;;;;;;5071258;28;20225;-59
2022/08/26 08:06:38;;;;;;;69.83;43.47;;;21.40;1.00;;;;;;5071029;28;20274;-59
2022/08/26 08:09:05;;;;;;;66.40;46.07;;;21.40;1.00;;;;;;5070854;28;20291;-60
2022/08/26 08:11:34;;;;;;;62.00;42.83;;;21.30;1.00;;;;;;5070751;28;20259;-59
2022/08/26 08:14:01;;;;;;;57.53;37.10;;;21.30;1.00;;;;;;5071323;28;20788;-63
2022/08/26 08:16:28;;;;;;;54.53;37.97;;;21.60;1.00;;;;;;5070547;28;20397;-57
2022/08/26 08:18:56;;;;;;;54.37;38.70;;;21.80;1.00;;;;;;5071444;28;20663;-58
2022/08/26 08:21:23;;;;;;;59.90;42.03;;;21.70;1.00;;;;;;5071547;28;20205;-60
2022/08/26 08:23:50;;;;;;;55.70;39.77;;;21.70;1.00;;;;;;5071131;28;20224;-60
2022/08/26 08:26:17;;;;;;;60.37;41.13;;;21.70;1.00;;;;;;5071225;28;20221;-60
2022/08/26 08:28:46;;;;;;;54.80;38.27;;;21.50;1.00;;;;;;5071756;28;20213;-60
2022/08/26 08:31:19;;;;;;;57.10;38.40;;;21.60;1.00;;;;;;5071749;28;20205;-60
2022/08/26 08:33:46;;;;;;;59.97;40.83;;;21.70;1.00;;;;;;5071544;28;20232;-60
2022/08/26 08:36:14;;;;;;;51.73;36.90;;;21.70;1.00;;;;;;5071076;28;20699;-60
2022/08/26 08:38:41;;;;;;;41.53;33.20;;;21.80;1.00;;;;;;5071305;28;20217;-59
2022/08/26 08:41:19;;;;;;;46.40;32.50;;;21.60;1.00;;;;;;5071369;28;20227;-59
2022/08/26 08:43:47;;;;;;;44.17;33.57;;;21.70;1.00;;;;;;5071164;28;20220;-59
2022/08/26 08:46:18;;;;;;;47.67;34.33;;;21.50;1.00;;;;;;5071069;28;20225;-59
2022/08/26 08:48:47;;;;;;;51.70;35.30;;;21.40;1.00;;;;;;5071452;28;20205;-60
2022/08/26 08:51:21;;;;;;;53.87;36.93;;;21.50;1.00;;;;;;5071053;28;20216;-60
2022/08/26 08:53:50;;;;;;;52.40;38.67;;;21.50;1.00;;;;;;5071260;28;20229;-59
2022/08/26 08:56:23;;;;;;;50.47;37.53;;;21.60;1.00;;;;;;5070957;28;20329;-59
2022/08/26 08:58:56;;;;;;;55.53;38.37;;;21.60;1.00;;;;;;5071231;28;20205;-60
2022/08/26 09:01:29;;;;;;;56.07;37.27;;;21.60;1.00;;;;;;5071064;28;20405;-60
2022/08/26 09:04:14;;;;;;;48.00;33.70;;;21.60;1.00;;;;;;5071534;28;20292;-60
2022/08/26 09:06:42;;;;;;;50.00;33.17;;;21.70;1.00;;;;;;5074369;28;20228;-60
2022/08/26 09:09:14;;;;;;;42.83;33.60;;;21.70;1.00;;;;;;5074788;28;20271;-59
2022/08/26 09:11:42;;;;;;;49.93;34.10;;;21.70;1.00;;;;;;5074547;28;20637;-59
2022/08/26 09:14:10;;;;;;;44.20;34.27;;;21.70;1.00;;;;;;5074527;28;20225;-59
2022/08/26 09:16:42;;;;;;;44.90;33.10;;;21.90;1.00;;;;;;5074402;28;20205;-59
2022/08/26 09:19:17;;;;;;;42.50;32.17;;;21.80;1.00;;;;;;5074374;28;20212;-60
2022/08/26 09:21:44;;;;;;;45.30;33.60;;;21.80;1.00;;;;;;5060107;28;20729;-61
2022/08/26 09:24:11;;;;;;;45.27;33.43;;;21.80;1.00;;;;;;5072196;28;20267;-64
2022/08/26 09:26:46;;;;;;;48.63;33.83;;;21.90;1.00;;;;;;5073419;28;20600;-61
2022/08/26 09:29:24;;;;;;;41.57;30.47;;;22.00;1.00;;;;;;5073769;28;20208;-61
2022/08/26 09:31:52;;;;;;;42.27;31.70;;;22.00;1.00;;;;;;5073876;28;20627;-61
2022/08/26 09:34:22;;;;;;;43.40;30.53;;;22.10;1.00;;;;;;5073571;28;20290;-58
2022/08/26 09:36:50;;;;;;;39.37;30.63;;;22.20;1.00;;;;;;5073635;28;20204;-58
2022/08/26 09:39:32;;;;;;;40.60;28.20;;;22.40;1.00;;;;;;5073253;28;20213;-59
2022/08/26 09:42:05;;;;;;;41.73;27.77;;;22.50;1.00;;;;;;5073627;28;20200;-59
2022/08/26 09:44:34;;;;;;;35.50;26.13;;;22.60;1.00;;;;;;5073392;28;20225;-59
2022/08/26 09:47:05;;;;;;;33.53;26.03;;;22.60;99.90;;;;;;5072207;28;20232;-60
2022/08/26 09:49:34;;;;;;;30.43;25.93;;;22.30;99.90;;;;;;5071528;28;20209;-58
2022/08/26 09:52:19;;;;;;;38.57;25.63;;;22.40;99.90;;;;;;5073400;28;20631;-59
2022/08/26 09:55:00;;;;;;;35.53;27.60;;;22.20;99.90;;;;;;5073220;28;20205;-57
2022/08/26 09:57:30;;;;;;;38.40;27.93;;;22.20;99.90;;;;;;5072670;28;20227;-61
2022/08/26 09:59:59;;;;;;;37.50;28.23;;;22.10;99.90;;;;;;5072749;28;20205;-62
2022/08/26 10:02:40;;;;;;;41.23;28.27;;;22.30;99.90;;;;;;5073040;28;20232;-59
2022/08/26 10:05:10;;;;;;;38.40;29.57;;;22.20;99.90;;;;;;5072603;28;20256;-56
2022/08/26 10:07:41;;;;;;;45.77;30.43;;;22.30;99.90;;;;;;5070276;28;20658;-56
2022/08/26 10:10:13;;;;;;;41.30;29.80;;;22.30;99.90;;;;;;5072904;28;20205;-58
2022/08/26 10:12:49;;;;;;;39.23;28.20;;;22.60;99.90;;;;;;5072111;28;20236;-56
2022/08/26 10:15:19;;;;;;;40.43;29.83;;;22.80;99.90;;;;;;5071172;28;20712;-56
2022/08/26 10:17:51;;;;;;;38.20;29.10;;;22.80;99.90;;;;;;5070760;28;20205;-59
2022/08/26 10:20:22;;;;;;;39.27;29.90;;;22.90;99.90;;;;;;5071609;28;20209;-57
2022/08/26 10:22:54;;;;;;;38.97;28.43;;;23.00;95.60;;;;;;5072315;28;20731;-61
2022/08/26 10:25:26;;;;;;;41.30;27.80;;;23.10;99.60;;;;;;5072996;28;20629;-59
2022/08/26 10:28:01;;;;;;;36.00;25.43;;;23.10;1.00;;;;;;5072315;28;20578;-58
2022/08/26 10:30:37;;;;;;;31.73;25.43;;;23.10;1.00;;;;;;5072613;28;20338;-59
2022/08/26 10:33:06;;;;;;;37.30;27.33;;;23.20;1.00;;;;;;5072345;28;20593;-62
2022/08/26 10:35:35;;;;;;;31.93;23.47;;;22.90;1.00;;;;;;5072087;28;20201;-61
2022/08/26 10:38:08;;;;;;;26.17;21.33;;;22.90;99.90;;;;;;5072017;28;20228;-60
2022/08/26 10:40:42;;;;;;;26.27;19.50;;;22.90;99.90;;;;;;5071470;28;20804;-60
2022/08/26 10:43:14;;;;;;;24.80;17.87;;;22.80;1.00;;;;;;5070186;28;20277;-63
2022/08/26 10:45:47;;;;;;;28.33;17.53;;;22.90;99.90;;;;;;5072197;28;20205;-62
2022/08/26 10:48:19;;;;;;;21.60;17.53;;;22.70;1.00;;;;;;5071717;28;20674;-64
2022/08/26 10:50:47;;;;;;;22.57;15.90;;;22.50;1.00;;;;;;5072206;28;20235;-62
2022/08/26 10:53:20;;;;;;;23.27;16.37;;;22.40;32.50;;;;;;5071859;28;20231;-62
2022/08/26 10:55:54;;;;;;;28.70;17.27;;;22.50;1.00;;;;;;5072194;28;20274;-62
2022/08/26 10:58:31;;;;;;;22.83;15.23;;;22.40;99.90;;;;;;5071961;28;20207;-62
2022/08/26 11:03:57;;;;;;;22.10;16.27;;;22.40;99.90;;;;;;5070737;28;20371;-63
2022/08/26 11:06:26;;;;;;;28.40;15.60;;;22.40;99.90;;;;;;5070466;28;20208;-61
2022/08/26 11:08:55;;;;;;;20.73;16.67;;;22.40;99.90;;;;;;5071901;28;20208;-61
2022/08/26 11:11:52;;;;;;;23.30;19.03;;;22.50;55.00;;;;;;5070765;28;20667;-58
2022/08/26 11:14:34;;;;;;;34.83;26.13;;;22.60;1.00;;;;;;5029874;28;20645;-58
2022/08/26 11:17:02;;;;;;;28.23;21.47;;;22.50;1.00;;;;;;5066511;28;20212;-59
2022/08/26 11:19:57;;;;;;;32.37;22.37;;;22.40;98.50;;;;;;5072178;28;20221;-59
2022/08/26 11:22:27;;;;;;;30.53;20.30;;;22.40;99.90;;;;;;5071745;28;20209;-59
2022/08/26 11:25:05;;;;;;;30.63;19.13;;;22.50;1.00;;;;;;5071910;28;20235;-59
2022/08/26 11:28:05;;;;;;;24.87;17.60;;;22.40;1.00;;;;;;5070798;28;20711;-59
2022/08/26 11:30:50;;;;;;;28.10;19.77;;;22.50;1.00;;;;;;5072571;28;20193;-59
2022/08/26 11:33:55;;;;;;;27.97;19.30;;;22.40;57.30;;;;;;5072247;28;20700;-59
2022/08/26 11:36:42;;;;;;;22.70;16.83;;;22.40;1.00;;;;;;5072099;28;20205;-58
2022/08/26 11:39:23;;;;;;;22.60;16.33;;;22.60;1.00;;;;;;5072202;28;20238;-59
2022/08/26 11:41:53;;;;;;;23.03;15.60;;;22.70;99.90;;;;;;5072071;28;20255;-59
2022/08/26 11:44:22;;;;;;;23.70;15.70;;;22.70;1.00;;;;;;5071836;28;20225;-58
2022/08/26 11:46:54;;;;;;;20.10;14.07;;;22.80;99.90;;;;;;5071672;28;20286;-59
2022/08/26 11:49:21;;;;;;;16.30;12.50;;;23.00;1.00;;;;;;5071917;28;20270;-56
2022/08/26 11:51:48;;;;;;;20.67;13.87;;;23.20;1.00;;;;;;5071876;28;20205;-55
2022/08/26 11:54:18;;;;;;;14.50;11.83;;;23.10;99.90;;;;;;5071867;28;20228;-58
2022/08/26 11:56:47;;;;;;;15.27;11.50;;;23.10;99.90;;;;;;5071613;28;20674;-56
2022/08/26 11:59:20;;;;;;;19.43;15.20;;;23.00;18.30;;;;;;5071904;28;20278;-59
2022/08/26 12:01:50;;;;;;;19.90;14.03;;;22.80;1.00;;;;;;5071966;28;20209;-59
2022/08/26 12:04:26;;;;;;;16.20;13.47;;;22.90;99.90;;;;;;5071961;28;20221;-59
2022/08/26 12:06:55;;;;;;;19.90;14.27;;;22.70;1.00;;;;;;5071654;28;20269;-59
2022/08/26 12:09:24;;;;;;;15.30;13.03;;;22.80;12.20;;;;;;5071994;28;20235;-59
2022/08/26 12:11:52;;;;;;;17.40;12.23;;;22.80;1.00;;;;;;5071864;28;20215;-59
2022/08/26 12:14:23;;;;;;;17.57;12.33;;;23.00;99.90;;;;;;5071832;28;20228;-59
2022/08/26 12:16:50;;;;;;;16.10;11.20;;;23.00;99.90;;;;;;5060318;28;20240;-60
2022/08/26 12:19:29;;;;;;;18.20;10.60;;;22.90;99.90;;;;;;5068684;28;20216;-54
2022/08/26 12:22:01;;;;;;;13.63;9.83;;;22.90;1.00;;;;;;5071237;28;20205;-56
2022/08/26 12:24:29;;;;;;;14.00;11.23;;;22.90;99.90;;;;;;5071027;28;20282;-59
2022/08/26 12:27:15;;;;;;;15.67;10.47;;;22.80;99.90;;;;;;5070728;28;20729;-59
2022/08/26 12:29:42;;;;;;;15.37;9.50;;;22.80;92.00;;;;;;5070717;28;20246;-57
2022/08/26 12:32:12;;;;;;;15.90;10.83;;;22.90;1.00;;;;;;5070715;28;20675;-59
2022/08/26 12:34:39;;;;;;;12.23;9.10;;;22.90;99.90;;;;;;5070859;28;20235;-57
2022/08/26 12:37:10;;;;;;;15.70;9.80;;;23.10;1.00;;;;;;5070738;28;20255;-62
2022/08/26 12:39:40;;;;;;;14.77;9.40;;;23.20;99.90;;;;;;5072156;28;20208;-63
2022/08/26 12:42:23;;;;;;;16.73;9.10;;;23.00;1.00;;;;;;5074794;28;20676;-63
2022/08/26 12:44:58;;;;;;;12.47;8.67;;;23.00;1.00;;;;;;5074644;28;20205;-61
2022/08/26 12:47:28;;;;;;;15.33;9.30;;;22.90;99.90;;;;;;5074559;28;20225;-62
2022/08/26 12:50:04;;;;;;;15.07;9.37;;;22.70;1.00;;;;;;5074301;28;20715;-63
2022/08/26 12:52:38;;;;;;;16.13;9.97;;;22.80;69.40;;;;;;5074402;28;20205;-62
2022/08/26 12:55:07;;;;;;;14.43;9.27;;;22.90;1.00;;;;;;5074406;28;20217;-62
2022/08/26 12:57:36;;;;;;;15.13;9.57;;;22.70;1.00;;;;;;5074395;28;20263;-64
2022/08/26 13:00:23;;;;;;;12.23;9.07;;;22.80;1.00;;;;;;5074063;28;20201;-64